createdAt,value
2022-09-18T00:01:35.410Z,26.59
2022-09-18T00:04:05.625Z,26.80
2022-09-18T00:06:36.282Z,26.51
2022-09-18T00:09:07.090Z,26.69
2022-09-18T00:11:47.231Z,26.81
2022-09-18T00:14:19.354Z,26.72
2022-09-18T00:16:47.358Z,26.51
2022-09-18T00:19:16.451Z,26.82
2022-09-18T00:21:47.580Z,26.76
2022-09-18T00:24:17.951Z,26.83
2022-09-18T00:26:47.083Z,26.83
2022-09-18T00:29:16.239Z,26.83
2022-09-18T00:31:44.665Z,26.77
2022-09-18T00:34:14.641Z,26.85
2022-09-18T00:36:42.608Z,26.34
2022-09-18T00:39:11.258Z,26.46
2022-09-18T00:41:43.191Z,26.86
2022-09-18T00:44:44.544Z,26.86
2022-09-18T00:47:12.117Z,26.84
2022-09-18T00:49:46.124Z,26.86
2022-09-18T00:52:15.682Z,26.80
2022-09-18T00:54:48.614Z,26.88
2022-09-18T00:57:23.925Z,26.68
2022-09-18T00:59:53.059Z,26.78
2022-09-18T01:02:22.096Z,26.88
2022-09-18T01:04:50.829Z,25.78
2022-09-18T01:07:35.815Z,26.87
2022-09-18T01:10:18.411Z,26.86
2022-09-18T01:13:00.459Z,26.61
2022-09-18T01:15:37.685Z,26.86
2022-09-18T01:18:31.759Z,26.86
2022-09-18T01:20:59.305Z,26.87
2022-09-18T01:23:27.122Z,26.88
2022-09-18T01:26:24.296Z,26.88
2022-09-18T01:29:17.337Z,26.88
2022-09-18T01:31:59.048Z,26.88
2022-09-18T01:34:59.582Z,26.71
2022-09-18T01:37:56.402Z,26.88
2022-09-18T01:40:33.999Z,26.56
2022-09-18T01:43:08.952Z,26.87
2022-09-18T01:45:43.854Z,26.87
2022-09-18T01:48:19.793Z,26.86
2022-09-18T01:50:54.349Z,26.77
2022-09-18T01:53:33.353Z,26.11
2022-09-18T01:56:11.229Z,26.50
2022-09-18T01:58:39.539Z,26.61
2022-09-18T02:01:13.742Z,26.85
2022-09-18T02:03:57.898Z,26.85
2022-09-18T02:06:42.086Z,26.65
2022-09-18T02:09:11.897Z,26.18
2022-09-18T02:11:46.642Z,26.86
2022-09-18T02:14:25.912Z,26.63
2022-09-18T02:17:23.416Z,26.80
2022-09-18T02:19:57.906Z,26.85
2022-09-18T02:22:30.605Z,26.66
2022-09-18T02:25:02.934Z,26.69
2022-09-18T02:27:34.559Z,26.83
2022-09-18T02:30:05.346Z,26.81
2022-09-18T02:32:36.725Z,26.27
2022-09-18T02:35:09.013Z,25.85
2022-09-18T02:38:03.626Z,26.84
2022-09-18T02:40:55.529Z,26.83
2022-09-18T02:43:34.320Z,26.57
2022-09-18T02:46:27.716Z,26.77
2022-09-18T02:49:30.815Z,26.79
2022-09-18T02:52:06.478Z,26.77
2022-09-18T02:54:40.700Z,26.76
2022-09-18T02:57:19.013Z,26.48
2022-09-18T02:59:51.667Z,26.76
2022-09-18T03:02:23.546Z,26.75
2022-09-18T03:04:52.218Z,26.78
2022-09-18T03:07:48.875Z,26.61
2022-09-18T03:10:16.896Z,26.37
2022-09-18T03:12:44.644Z,26.68
2022-09-18T03:15:12.269Z,26.74
2022-09-18T03:17:39.785Z,26.73
2022-09-18T03:20:08.463Z,25.84
2022-09-18T03:22:36.476Z,26.72
2022-09-18T03:25:04.616Z,26.63
2022-09-18T03:27:34.398Z,26.52
2022-09-18T03:30:02.369Z,26.22
2022-09-18T03:32:32.521Z,26.69
2022-09-18T03:35:00.156Z,26.67
2022-09-18T03:37:28.896Z,26.67
2022-09-18T03:40:00.590Z,26.61
2022-09-18T03:42:28.210Z,26.35
2022-09-18T03:44:57.605Z,26.00
2022-09-18T03:47:30.896Z,25.96
2022-09-18T03:50:02.017Z,26.65
2022-09-18T03:52:34.091Z,26.51
2022-09-18T03:55:09.630Z,26.63
2022-09-18T03:58:04.924Z,26.44
2022-09-18T04:00:58.889Z,26.36
2022-09-18T04:03:34.704Z,26.29
2022-09-18T04:06:22.657Z,26.61
2022-09-18T04:09:07.797Z,26.32
2022-09-18T04:11:43.994Z,26.59
2022-09-18T04:14:11.957Z,26.39
2022-09-18T04:16:40.159Z,25.85
2022-09-18T04:19:09.393Z,26.35
2022-09-18T04:21:39.191Z,26.59
2022-09-18T04:24:06.890Z,26.45
2022-09-18T04:26:35.380Z,26.53
2022-09-18T04:29:03.703Z,26.60
2022-09-18T04:31:32.115Z,26.59
2022-09-18T04:34:04.620Z,26.38
2022-09-18T04:36:33.852Z,26.52
2022-09-18T04:39:01.592Z,26.45
2022-09-18T04:41:29.458Z,26.37
2022-09-18T04:43:59.189Z,26.58
2022-09-18T04:46:27.056Z,26.25
2022-09-18T04:48:55.031Z,26.23
2022-09-18T04:51:25.838Z,26.15
2022-09-18T04:53:53.552Z,26.18
2022-09-18T04:56:21.519Z,26.27
2022-09-18T04:58:51.607Z,26.27
2022-09-18T05:01:19.790Z,26.55
2022-09-18T05:03:47.365Z,26.39
2022-09-18T05:06:28.402Z,26.00
2022-09-18T05:08:56.002Z,26.48
2022-09-18T05:11:25.840Z,26.51
2022-09-18T05:13:57.068Z,26.53
2022-09-18T05:16:27.705Z,26.41
2022-09-18T05:19:18.243Z,26.51
2022-09-18T05:21:51.776Z,26.41
2022-09-18T05:24:20.775Z,26.16
2022-09-18T05:26:50.261Z,25.56
2022-09-18T05:29:20.723Z,26.44
2022-09-18T05:31:49.905Z,26.35
2022-09-18T05:34:17.449Z,25.96
2022-09-18T05:36:46.591Z,25.74
2022-09-18T05:39:17.401Z,26.33
2022-09-18T05:41:51.314Z,26.07
2022-09-18T05:44:20.162Z,26.35
2022-09-18T05:46:49.637Z,26.41
2022-09-18T05:49:17.840Z,26.42
2022-09-18T05:51:46.531Z,26.41
2022-09-18T05:54:15.795Z,25.84
2022-09-18T05:56:50.403Z,25.18
2022-09-18T05:59:18.170Z,25.70
2022-09-18T06:01:48.556Z,25.52
2022-09-18T06:04:24.467Z,26.41
2022-09-18T06:06:56.956Z,26.40
2022-09-18T06:09:25.863Z,26.01
2022-09-18T06:11:53.692Z,25.94
2022-09-18T06:14:22.433Z,26.36
2022-09-18T06:16:50.693Z,26.37
2022-09-18T06:19:18.512Z,25.99
2022-09-18T06:21:48.794Z,26.36
2022-09-18T06:24:18.984Z,26.34
2022-09-18T06:27:09.824Z,26.26
2022-09-18T06:29:39.243Z,26.01
2022-09-18T06:32:12.772Z,26.31
2022-09-18T06:34:41.488Z,26.31
2022-09-18T06:37:13.533Z,26.21
2022-09-18T06:39:44.654Z,26.29
2022-09-18T06:42:26.806Z,26.01
2022-09-18T06:45:15.850Z,26.28
2022-09-18T06:47:45.354Z,26.24
2022-09-18T06:50:13.590Z,25.92
2022-09-18T06:52:41.255Z,26.25
2022-09-18T06:55:09.441Z,25.59
2022-09-18T06:57:37.200Z,25.91
2022-09-18T07:00:05.831Z,26.19
2022-09-18T07:02:38.269Z,26.11
2022-09-18T07:05:38.680Z,25.85
2022-09-18T07:08:06.494Z,26.23
2022-09-18T07:10:36.976Z,26.25
2022-09-18T07:13:05.143Z,26.25
2022-09-18T07:15:40.368Z,25.74
2022-09-18T07:18:09.356Z,26.14
2022-09-18T07:20:37.015Z,26.25
2022-09-18T07:23:04.750Z,26.26
2022-09-18T07:25:42.495Z,26.24
2022-09-18T07:28:11.238Z,26.28
2022-09-18T07:30:46.546Z,26.27
2022-09-18T07:33:15.475Z,25.81
2022-09-18T07:35:48.436Z,26.26
2022-09-18T07:38:18.246Z,25.63
2022-09-18T07:40:55.053Z,26.11
2022-09-18T07:43:30.639Z,26.02
2022-09-18T07:46:00.743Z,26.27
2022-09-18T07:48:31.121Z,26.09
2022-09-18T07:51:09.809Z,25.25
2022-09-18T07:53:41.334Z,26.34
2022-09-18T07:56:11.446Z,26.31
2022-09-18T07:58:40.387Z,25.46
2022-09-18T08:01:15.627Z,25.49
2022-09-18T08:03:49.429Z,25.63
2022-09-18T08:06:17.889Z,25.70
2022-09-18T08:09:08.125Z,25.63
2022-09-18T08:11:58.744Z,25.59
2022-09-18T08:14:51.684Z,25.54
2022-09-18T08:17:26.287Z,25.05
2022-09-18T08:20:04.557Z,24.40
2022-09-18T08:22:46.943Z,25.20
2022-09-18T08:25:15.194Z,24.87
2022-09-18T08:27:46.702Z,25.54
2022-09-18T08:30:16.908Z,25.35
2022-09-18T08:32:46.919Z,25.16
2022-09-18T08:35:14.618Z,25.34
2022-09-18T08:37:48.989Z,25.42
2022-09-18T08:40:50.646Z,25.26
2022-09-18T08:43:28.059Z,25.40
2022-09-18T08:46:12.657Z,25.26
2022-09-18T08:48:50.025Z,25.47
2022-09-18T08:51:26.247Z,25.00
2022-09-18T08:54:01.538Z,24.60
2022-09-18T08:57:05.590Z,25.26
2022-09-18T08:59:53.951Z,25.16
2022-09-18T09:02:27.815Z,25.47
2022-09-18T09:05:01.774Z,25.17
2022-09-18T09:07:40.573Z,25.69
2022-09-18T09:10:30.087Z,25.72
2022-09-18T09:13:28.526Z,25.74
2022-09-18T09:16:14.731Z,25.40
2022-09-18T09:19:27.674Z,25.75
2022-09-18T09:22:14.050Z,25.82
2022-09-18T09:24:48.209Z,25.84
2022-09-18T09:27:53.434Z,25.91
2022-09-18T09:31:03.476Z,25.94
2022-09-18T09:34:01.781Z,26.02
2022-09-18T09:36:50.694Z,25.89
2022-09-18T09:39:42.216Z,25.81
2022-09-18T09:42:25.898Z,26.08
2022-09-18T09:45:00.939Z,26.04
2022-09-18T09:47:59.618Z,26.18
2022-09-18T09:50:38.339Z,26.21
2022-09-18T09:53:11.818Z,25.73
2022-09-18T09:55:47.378Z,26.17
2022-09-18T09:58:38.436Z,26.27
2022-09-18T10:01:13.606Z,26.26
2022-09-18T10:04:07.098Z,26.32
2022-09-18T10:07:01.997Z,26.39
2022-09-18T10:09:47.199Z,26.42
2022-09-18T10:12:24.016Z,26.44
2022-09-18T10:15:01.515Z,26.42
2022-09-18T10:17:37.086Z,26.34
2022-09-18T10:20:06.968Z,25.32
2022-09-18T10:22:36.023Z,25.76
2022-09-18T10:25:33.685Z,26.55
2022-09-18T10:28:02.230Z,25.92
2022-09-18T10:30:30.104Z,26.59
2022-09-18T10:32:58.288Z,26.56
2022-09-18T10:35:38.636Z,26.59
2022-09-18T10:38:27.121Z,26.29
2022-09-18T10:40:54.855Z,26.01
2022-09-18T10:43:23.477Z,26.33
2022-09-18T10:45:56.403Z,26.40
2022-09-18T10:48:30.039Z,26.22
2022-09-18T10:51:00.960Z,26.68
2022-09-18T10:53:42.662Z,26.71
2022-09-18T10:56:20.621Z,26.57
2022-09-18T10:58:51.773Z,26.70
2022-09-18T11:01:20.425Z,26.69
2022-09-18T11:04:04.433Z,26.55
2022-09-18T11:06:38.059Z,26.48
2022-09-18T11:09:20.537Z,26.66
2022-09-18T11:11:51.631Z,26.49
2022-09-18T11:14:38.519Z,26.14
2022-09-18T11:17:34.340Z,26.61
2022-09-18T11:20:06.798Z,26.57
2022-09-18T11:23:14.015Z,26.56
2022-09-18T11:25:42.243Z,25.98
2022-09-18T11:28:28.809Z,26.51
2022-09-18T11:31:20.153Z,26.53
2022-09-18T11:33:57.105Z,26.10
2022-09-18T11:36:33.709Z,26.03
2022-09-18T11:39:15.835Z,26.19
2022-09-18T11:41:48.950Z,26.11
2022-09-18T11:44:33.528Z,26.20
2022-09-18T11:47:20.758Z,26.34
2022-09-18T11:50:02.067Z,26.12
2022-09-18T11:52:38.654Z,26.31
2022-09-18T11:55:36.824Z,26.18
2022-09-18T11:58:31.533Z,26.45
2022-09-18T12:01:12.665Z,26.41
2022-09-18T12:03:49.979Z,26.20
2022-09-18T12:06:35.607Z,26.39
2022-09-18T12:09:42.498Z,26.38
2022-09-18T12:12:13.002Z,26.40
2022-09-18T12:14:57.287Z,26.08
2022-09-18T12:17:43.933Z,26.37
2022-09-18T12:20:23.553Z,26.04
2022-09-18T12:22:56.719Z,26.24
2022-09-18T12:25:45.529Z,26.28
2022-09-18T12:28:22.164Z,26.14
2022-09-18T12:31:24.475Z,26.24
2022-09-18T12:34:01.963Z,26.36
2022-09-18T12:36:45.316Z,25.94
2022-09-18T12:39:29.105Z,26.27
2022-09-18T12:42:04.756Z,26.22
2022-09-18T12:44:57.532Z,26.22
2022-09-18T12:47:41.259Z,25.69
2022-09-18T12:50:11.946Z,26.32
2022-09-18T12:53:09.041Z,26.10
2022-09-18T12:56:08.561Z,26.16
2022-09-18T12:59:07.504Z,26.37
2022-09-18T13:01:46.276Z,26.33
2022-09-18T13:04:29.362Z,26.34
2022-09-18T13:07:31.998Z,26.38
2022-09-18T13:10:14.590Z,25.88
2022-09-18T13:12:45.998Z,26.23
2022-09-18T13:15:21.962Z,26.30
2022-09-18T13:18:04.356Z,26.47
2022-09-18T13:20:36.520Z,26.50
2022-09-18T13:23:06.092Z,26.24
2022-09-18T13:25:38.233Z,26.11
2022-09-18T13:28:15.459Z,26.56
2022-09-18T13:30:43.678Z,26.58
2022-09-18T13:33:31.577Z,26.60
2022-09-18T13:35:59.429Z,26.13
2022-09-18T13:38:29.147Z,26.21
2022-09-18T13:41:09.312Z,26.37
2022-09-18T13:43:43.948Z,26.42
2022-09-18T13:46:40.194Z,26.53
2022-09-18T13:49:20.050Z,26.53
2022-09-18T13:51:47.842Z,26.54
2022-09-18T13:54:33.657Z,26.31
2022-09-18T13:57:10.978Z,26.54
2022-09-18T13:59:49.311Z,26.54
2022-09-18T14:02:40.089Z,26.44
2022-09-18T14:05:08.742Z,26.40
2022-09-18T14:07:36.267Z,26.38
2022-09-18T14:10:20.771Z,26.38
2022-09-18T14:13:07.224Z,26.30
2022-09-18T14:15:35.320Z,26.26
2022-09-18T14:18:15.488Z,26.56
2022-09-18T14:20:56.327Z,26.43
2022-09-18T14:23:36.434Z,26.61
2022-09-18T14:26:32.451Z,26.61
2022-09-18T14:29:15.223Z,26.58
2022-09-18T14:31:52.097Z,26.54
2022-09-18T14:34:40.895Z,26.39
2022-09-18T14:37:25.884Z,26.72
2022-09-18T14:39:55.515Z,26.69
2022-09-18T14:42:33.412Z,26.81
2022-09-18T14:45:31.585Z,26.71
2022-09-18T14:47:59.613Z,26.44
2022-09-18T14:50:37.734Z,26.80
2022-09-18T14:53:24.684Z,26.59
2022-09-18T14:56:07.329Z,26.45
2022-09-18T14:58:38.220Z,26.65
2022-09-18T15:01:08.628Z,26.66
2022-09-18T15:03:40.218Z,26.51
2022-09-18T15:06:24.406Z,26.69
2022-09-18T15:08:54.999Z,26.61
2022-09-18T15:11:34.533Z,26.24
2022-09-18T15:14:27.370Z,26.61
2022-09-18T15:17:00.666Z,26.49
2022-09-18T15:19:30.219Z,26.27
2022-09-18T15:22:02.300Z,26.49
2022-09-18T15:24:31.646Z,26.46
2022-09-18T15:27:01.712Z,26.44
2022-09-18T15:29:45.630Z,26.39
2022-09-18T15:32:26.484Z,26.09
2022-09-18T15:34:55.422Z,26.14
2022-09-18T15:37:26.010Z,25.90
2022-09-18T15:40:06.886Z,26.38
2022-09-18T15:42:51.363Z,26.39
2022-09-18T15:45:22.150Z,25.98
2022-09-18T15:47:50.452Z,25.96
2022-09-18T15:50:18.902Z,26.40
2022-09-18T15:52:54.060Z,26.41
2022-09-18T15:55:24.618Z,26.29
2022-09-18T15:57:58.836Z,26.34
2022-09-18T16:00:31.384Z,26.13
2022-09-18T16:03:06.925Z,26.33
2022-09-18T16:05:38.044Z,26.26
2022-09-18T16:08:28.972Z,26.35
2022-09-18T16:10:59.628Z,25.93
2022-09-18T16:13:31.653Z,26.36
2022-09-18T16:16:08.681Z,26.40
2022-09-18T16:19:07.358Z,26.23
2022-09-18T16:21:42.004Z,26.40
2022-09-18T16:24:30.219Z,26.35
2022-09-18T16:27:08.042Z,26.40
2022-09-18T16:29:35.757Z,26.40
2022-09-18T16:32:03.389Z,26.33
2022-09-18T16:34:31.037Z,25.86
2022-09-18T16:36:58.679Z,26.44
2022-09-18T16:39:27.187Z,26.47
2022-09-18T16:41:54.872Z,26.49
2022-09-18T16:44:22.748Z,26.51
2022-09-18T16:47:00.123Z,26.43
2022-09-18T16:49:32.726Z,26.14
2022-09-18T16:52:00.377Z,26.08
2022-09-18T16:54:28.100Z,26.29
2022-09-18T16:57:00.335Z,26.36
2022-09-18T16:59:30.179Z,26.58
2022-09-18T17:02:04.768Z,26.59
2022-09-18T17:04:34.065Z,26.56
2022-09-18T17:07:02.021Z,26.48
2022-09-18T17:09:30.331Z,26.22
2022-09-18T17:11:58.746Z,26.44
2022-09-18T17:14:26.754Z,25.75
2022-09-18T17:16:54.486Z,26.41
2022-09-18T17:19:22.359Z,26.29
2022-09-18T17:21:50.325Z,26.29
2022-09-18T17:24:18.053Z,26.37
2022-09-18T17:26:45.625Z,25.59
2022-09-18T17:29:17.329Z,25.97
2022-09-18T17:31:45.286Z,26.31
2022-09-18T17:34:13.109Z,26.04
2022-09-18T17:36:40.975Z,26.28
2022-09-18T17:39:11.961Z,26.31
2022-09-18T17:41:39.659Z,26.02
2022-09-18T17:44:07.399Z,26.36
2022-09-18T17:46:35.250Z,26.26
2022-09-18T17:49:03.054Z,26.36
2022-09-18T17:51:31.228Z,26.37
2022-09-18T17:54:02.891Z,26.14
2022-09-18T17:56:31.782Z,26.43
2022-09-18T17:59:02.373Z,26.44
2022-09-18T18:01:31.651Z,26.40
2022-09-18T18:04:00.231Z,26.36
2022-09-18T18:06:28.102Z,26.43
2022-09-18T18:08:56.459Z,26.40
2022-09-18T18:11:28.142Z,26.33
2022-09-18T18:13:56.502Z,26.43
2022-09-18T18:16:27.525Z,26.10
2022-09-18T18:18:57.733Z,26.43
2022-09-18T18:21:26.634Z,26.27
2022-09-18T18:23:56.807Z,26.43
2022-09-18T18:26:24.998Z,26.28
2022-09-18T18:28:52.676Z,26.53
2022-09-18T18:31:21.061Z,26.53
2022-09-18T18:33:48.823Z,26.47
2022-09-18T18:36:17.924Z,26.52
2022-09-18T18:38:48.413Z,26.09
2022-09-18T18:41:17.563Z,26.41
2022-09-18T18:43:45.688Z,26.28
2022-09-18T18:46:15.595Z,26.48
2022-09-18T18:48:44.173Z,26.45
2022-09-18T18:51:14.171Z,26.46
2022-09-18T18:53:43.565Z,26.51
2022-09-18T18:56:15.089Z,26.67
2022-09-18T18:58:47.319Z,26.16
2022-09-18T19:01:17.671Z,26.68
2022-09-18T19:03:55.484Z,26.61
2022-09-18T19:06:24.830Z,26.69
2022-09-18T19:08:57.284Z,26.69
2022-09-18T19:11:25.493Z,26.40
2022-09-18T19:13:56.894Z,26.69
2022-09-18T19:16:26.140Z,26.68
2022-09-18T19:19:01.344Z,26.35
2022-09-18T19:21:29.197Z,26.51
2022-09-18T19:23:59.723Z,26.64
2022-09-18T19:26:29.457Z,26.38
2022-09-18T19:28:59.628Z,26.63
2022-09-18T19:31:29.189Z,26.61
2022-09-18T19:33:58.059Z,26.57
2022-09-18T19:36:28.717Z,26.35
2022-09-18T19:38:58.997Z,26.53
2022-09-18T19:41:39.093Z,26.61
2022-09-18T19:44:42.292Z,26.53
2022-09-18T19:47:32.112Z,26.60
2022-09-18T19:50:02.696Z,26.60
2022-09-18T19:52:30.487Z,26.37
2022-09-18T19:54:59.028Z,25.99
2022-09-18T19:57:28.769Z,26.61
2022-09-18T19:59:57.546Z,26.31
2022-09-18T20:02:25.581Z,26.63
2022-09-18T20:04:53.431Z,26.25
2022-09-18T20:07:21.133Z,26.39
2022-09-18T20:09:48.666Z,26.56
2022-09-18T20:12:16.244Z,26.52
2022-09-18T20:14:44.080Z,26.52
2022-09-18T20:17:12.216Z,26.68
2022-09-18T20:19:39.927Z,26.61
2022-09-18T20:22:07.868Z,26.47
2022-09-18T20:24:35.690Z,26.63
2022-09-18T20:27:03.654Z,26.72
2022-09-18T20:29:31.414Z,26.74
2022-09-18T20:31:59.245Z,26.31
2022-09-18T20:34:27.250Z,26.76
2022-09-18T20:36:55.288Z,26.38
2022-09-18T20:39:23.010Z,26.80
2022-09-18T20:41:51.406Z,26.80
2022-09-18T20:44:19.658Z,26.81
2022-09-18T20:46:47.461Z,26.02
2022-09-18T20:49:18.107Z,26.44
2022-09-18T20:51:46.106Z,26.37
2022-09-18T20:54:15.065Z,26.70
2022-09-18T20:56:44.364Z,26.53
2022-09-18T20:59:16.179Z,26.65
2022-09-18T21:01:46.195Z,26.62
2022-09-18T21:04:19.629Z,26.60
2022-09-18T21:06:55.475Z,26.44
2022-09-18T21:09:26.415Z,26.51
2022-09-18T21:11:56.920Z,26.45
2022-09-18T21:14:25.649Z,26.19
2022-09-18T21:16:53.842Z,26.63
2022-09-18T21:19:21.521Z,26.48
2022-09-18T21:21:49.582Z,26.64
2022-09-18T21:24:17.742Z,26.63
2022-09-18T21:26:48.222Z,26.64
2022-09-18T21:29:18.088Z,26.55
2022-09-18T21:31:47.633Z,26.60
2022-09-18T21:34:27.097Z,26.53
2022-09-18T21:36:57.883Z,26.62
2022-09-18T21:39:28.369Z,26.10
2022-09-18T21:42:00.912Z,26.65
2022-09-18T21:44:31.954Z,26.19
2022-09-18T21:47:05.257Z,26.08
2022-09-18T21:49:33.430Z,26.66
2022-09-18T21:52:07.230Z,26.59
2022-09-18T21:54:35.065Z,26.60
2022-09-18T21:57:03.270Z,26.69
2022-09-18T21:59:31.760Z,26.41
2022-09-18T22:02:01.074Z,26.70
2022-09-18T22:04:32.288Z,26.58
2022-09-18T22:07:01.727Z,26.62
2022-09-18T22:09:33.275Z,26.67
2022-09-18T22:12:04.244Z,26.66
2022-09-18T22:14:34.181Z,26.41
2022-09-18T22:17:06.873Z,26.67
2022-09-18T22:19:39.250Z,26.47
2022-09-18T22:22:10.076Z,26.59
2022-09-18T22:24:38.674Z,26.66
2022-09-18T22:27:08.668Z,26.43
2022-09-18T22:29:39.540Z,26.66
2022-09-18T22:32:07.798Z,26.59
2022-09-18T22:34:35.527Z,26.49
2022-09-18T22:37:03.602Z,26.11
2022-09-18T22:39:31.305Z,26.59
2022-09-18T22:41:58.941Z,26.35
2022-09-18T22:44:26.814Z,26.39
2022-09-18T22:46:57.394Z,26.22
2022-09-18T22:49:25.261Z,26.56
2022-09-18T22:51:53.010Z,26.39
2022-09-18T22:54:27.560Z,26.36
2022-09-18T22:56:56.314Z,26.65
2022-09-18T22:59:26.243Z,26.64
2022-09-18T23:02:00.913Z,26.65
2022-09-18T23:04:30.298Z,26.52
2022-09-18T23:06:59.367Z,26.64
2022-09-18T23:09:28.681Z,26.25
2022-09-18T23:11:57.280Z,26.55
2022-09-18T23:14:27.986Z,26.22
2022-09-18T23:16:57.085Z,26.49
2022-09-18T23:19:27.750Z,26.63
2022-09-18T23:21:55.862Z,26.61
2022-09-18T23:24:24.074Z,26.62
2022-09-18T23:26:53.661Z,26.60
2022-09-18T23:29:23.095Z,26.36
2022-09-18T23:31:59.121Z,26.60
2022-09-18T23:34:30.172Z,26.59
2022-09-18T23:36:58.928Z,26.50
2022-09-18T23:39:29.216Z,26.56
2022-09-18T23:41:58.951Z,26.55
2022-09-18T23:44:34.546Z,26.57
2022-09-18T23:47:02.669Z,26.41
2022-09-18T23:49:31.032Z,26.57
2022-09-18T23:51:59.809Z,26.34
2022-09-18T23:54:30.446Z,26.56
2022-09-18T23:56:58.597Z,26.01
2022-09-18T23:59:27.114Z,26.39
